createdAt,value
2018-03-07T00:00:00.616Z,7.33
2018-03-07T00:01:00.585Z,7.36
2018-03-07T00:02:00.534Z,7.31
2018-03-07T00:03:00.484Z,7.39
2018-03-07T00:04:00.441Z,7.28
2018-03-07T00:05:00.391Z,7.31
2018-03-07T00:06:00.347Z,7.29
2018-03-07T00:07:00.301Z,7.32
2018-03-07T00:08:00.254Z,7.28
2018-03-07T00:09:00.208Z,7.33
2018-03-07T00:10:00.164Z,7.19
2018-03-07T00:11:00.122Z,7.28
2018-03-07T00:12:00.079Z,7.15
2018-03-07T00:13:00.026Z,7.26
2018-03-07T00:13:59.980Z,7.23
2018-03-07T00:14:59.933Z,7.13
2018-03-07T00:15:59.890Z,7.15
2018-03-07T00:16:59.845Z,7.19
2018-03-07T00:17:59.795Z,7.15
2018-03-07T00:18:59.751Z,7.10
2018-03-07T00:19:59.707Z,7.10
2018-03-07T00:20:59.659Z,7.10
2018-03-07T00:21:59.610Z,7.11
2018-03-07T00:22:59.566Z,7.07
2018-03-07T00:23:59.519Z,7.04
2018-03-07T00:24:59.477Z,7.08
2018-03-07T00:25:59.427Z,7.04
2018-03-07T00:26:59.387Z,7.07
2018-03-07T00:27:59.338Z,6.97
2018-03-07T00:28:59.294Z,6.90
2018-03-07T00:29:59.242Z,6.93
2018-03-07T00:30:59.199Z,7.00
2018-03-07T00:31:59.152Z,6.95
2018-03-07T00:32:59.111Z,6.95
2018-03-07T00:33:59.065Z,6.90
2018-03-07T00:34:59.016Z,6.87
2018-03-07T00:35:58.975Z,6.87
2018-03-07T00:36:58.930Z,6.87
2018-03-07T00:37:58.879Z,6.87
2018-03-07T00:38:58.833Z,6.90
2018-03-07T00:39:58.793Z,6.93
2018-03-07T00:40:58.736Z,6.96
2018-03-07T00:41:58.695Z,6.97
2018-03-07T00:42:58.649Z,6.93
2018-03-07T00:43:58.606Z,7.00
2018-03-07T00:44:58.561Z,6.97
2018-03-07T00:45:58.542Z,6.95
2018-03-07T00:46:58.468Z,6.95
2018-03-07T00:47:58.420Z,6.96
2018-03-07T00:48:58.378Z,7.07
2018-03-07T00:49:58.325Z,6.97
2018-03-07T00:50:58.280Z,7.00
2018-03-07T00:51:58.234Z,6.96
2018-03-07T00:52:58.188Z,7.00
2018-03-07T00:53:58.147Z,7.07
2018-03-07T00:54:58.093Z,7.01
2018-03-07T00:55:58.050Z,6.97
2018-03-07T00:56:58.004Z,6.95
2018-03-07T00:57:57.955Z,7.07
2018-03-07T00:58:57.914Z,7.03
2018-03-07T00:59:57.867Z,7.00
2018-03-07T01:00:57.823Z,6.96
2018-03-07T01:01:57.771Z,6.97
2018-03-07T01:02:57.730Z,7.04
2018-03-07T01:03:57.684Z,7.04
2018-03-07T01:04:57.633Z,7.03
2018-03-07T01:05:57.592Z,7.05
2018-03-07T01:06:57.579Z,7.07
2018-03-07T01:07:57.502Z,7.01
2018-03-07T01:08:57.452Z,7.05
2018-03-07T01:09:57.404Z,7.03
2018-03-07T01:10:57.357Z,7.04
2018-03-07T01:11:57.318Z,7.04
2018-03-07T01:12:57.266Z,7.08
2018-03-07T01:13:57.223Z,7.08
2018-03-07T01:14:57.173Z,6.97
2018-03-07T01:15:57.132Z,7.05
2018-03-07T01:16:57.083Z,7.00
2018-03-07T01:17:57.037Z,7.00
2018-03-07T01:18:56.988Z,7.00
2018-03-07T01:19:56.943Z,7.01
2018-03-07T01:20:56.902Z,7.03
2018-03-07T01:21:56.852Z,7.04
2018-03-07T01:22:56.813Z,7.00
2018-03-07T01:23:56.762Z,7.05
2018-03-07T01:24:56.717Z,7.00
2018-03-07T01:25:56.705Z,7.00
2018-03-07T01:26:56.621Z,7.10
2018-03-07T01:27:56.579Z,7.11
2018-03-07T01:28:56.532Z,7.07
2018-03-07T01:29:56.483Z,7.13
2018-03-07T01:30:56.439Z,7.11
2018-03-07T01:31:56.393Z,7.01
2018-03-07T01:32:56.349Z,7.03
2018-03-07T01:33:56.301Z,7.00
2018-03-07T01:34:56.254Z,7.01
2018-03-07T01:35:56.208Z,7.00
2018-03-07T01:36:56.162Z,7.03
2018-03-07T01:37:56.120Z,7.03
2018-03-07T01:38:56.070Z,7.07
2018-03-07T01:39:56.026Z,7.01
2018-03-07T01:40:55.977Z,7.00
2018-03-07T01:41:55.929Z,7.00
2018-03-07T01:42:55.883Z,7.05
2018-03-07T01:43:55.843Z,6.95
2018-03-07T01:44:55.799Z,7.04
2018-03-07T01:45:55.756Z,6.96
2018-03-07T01:46:55.705Z,7.03
2018-03-07T01:47:55.658Z,7.04
2018-03-07T01:48:55.613Z,7.03
2018-03-07T01:49:55.569Z,7.03
2018-03-07T01:50:55.518Z,7.04
2018-03-07T01:51:55.472Z,7.07
2018-03-07T01:52:55.427Z,7.04
2018-03-07T01:53:55.381Z,7.01
2018-03-07T01:54:55.337Z,7.04
2018-03-07T01:55:55.292Z,6.96
2018-03-07T01:56:55.242Z,7.05
2018-03-07T01:57:55.199Z,7.07
2018-03-07T01:58:55.153Z,7.03
2018-03-07T01:59:55.106Z,7.01
2018-03-07T02:00:55.065Z,7.07
2018-03-07T02:01:55.009Z,6.97
2018-03-07T02:02:54.969Z,7.07
2018-03-07T02:03:54.921Z,7.03
2018-03-07T02:04:54.874Z,7.03
2018-03-07T02:05:54.827Z,7.04
2018-03-07T02:06:54.781Z,7.03
2018-03-07T02:07:54.735Z,7.04
2018-03-07T02:08:54.690Z,7.07
2018-03-07T02:09:54.641Z,7.04
2018-03-07T03:05:52.055Z,5.98
2018-03-07T03:06:52.008Z,6.06
2018-03-07T03:07:51.964Z,5.91
2018-03-07T03:08:51.915Z,5.94
2018-03-07T03:09:51.868Z,5.81
2018-03-07T03:10:51.826Z,5.94
2018-03-07T03:11:51.782Z,5.94
2018-03-07T03:12:51.728Z,5.88
2018-03-07T03:13:51.684Z,5.83
2018-03-07T03:14:51.642Z,5.83
2018-03-07T03:15:51.587Z,5.79
2018-03-07T03:16:51.546Z,5.79
2018-03-07T03:17:51.501Z,5.81
2018-03-07T03:18:51.451Z,5.79
2018-03-07T03:19:51.407Z,5.72
2018-03-07T03:20:51.358Z,5.67
2018-03-07T03:21:51.309Z,5.72
2018-03-07T03:22:51.263Z,5.62
2018-03-07T03:23:51.216Z,5.76
2018-03-07T03:24:51.169Z,5.65
2018-03-07T03:25:51.119Z,5.62
2018-03-07T03:26:51.072Z,5.54
2018-03-07T03:27:51.030Z,5.54
2018-03-07T03:28:50.982Z,5.59
2018-03-07T03:29:50.938Z,5.51
2018-03-07T03:30:50.888Z,5.51
2018-03-07T03:31:50.841Z,5.55
2018-03-07T03:32:50.799Z,5.52
2018-03-07T03:33:50.747Z,5.38
2018-03-07T03:34:50.702Z,5.41
2018-03-07T03:35:50.653Z,5.38
2018-03-07T03:36:50.605Z,5.40
2018-03-07T03:37:50.558Z,5.43
2018-03-07T03:38:50.512Z,5.37
2018-03-07T03:39:50.464Z,5.41
2018-03-07T03:40:50.421Z,5.41
2018-03-07T03:41:50.372Z,5.34
2018-03-07T03:42:50.324Z,5.28
2018-03-07T03:43:50.276Z,5.31
2018-03-07T03:44:50.231Z,5.22
2018-03-07T03:45:50.183Z,5.34
2018-03-07T03:46:50.144Z,5.25
2018-03-07T03:47:50.093Z,5.33
2018-03-07T03:48:50.046Z,5.28
2018-03-07T03:49:50.000Z,5.31
2018-03-07T03:50:49.950Z,5.25
2018-03-07T03:51:49.900Z,5.23
2018-03-07T03:52:49.853Z,5.28
2018-03-07T03:53:49.808Z,5.33
2018-03-07T03:54:49.762Z,5.28
2018-03-07T03:55:49.725Z,5.28
2018-03-07T03:56:49.665Z,5.26
2018-03-07T03:57:49.620Z,5.26
2018-03-07T03:58:49.573Z,5.28
2018-03-07T03:59:49.525Z,5.31
2018-03-07T04:00:49.479Z,5.33
2018-03-07T04:01:49.431Z,5.20
2018-03-07T04:02:49.386Z,5.23
2018-03-07T04:03:49.336Z,5.22
2018-03-07T04:04:49.291Z,5.22
2018-03-07T04:05:49.245Z,5.23
2018-03-07T04:06:49.196Z,5.22
2018-03-07T04:07:49.150Z,5.22
2018-03-07T04:08:49.101Z,5.16
2018-03-07T04:09:49.057Z,5.13
2018-03-07T04:10:49.009Z,5.16
2018-03-07T04:11:48.962Z,5.18
2018-03-07T04:12:48.917Z,5.07
2018-03-07T04:13:48.867Z,5.05
2018-03-07T04:14:48.819Z,5.05
2018-03-07T04:15:48.772Z,5.07
2018-03-07T04:16:48.727Z,5.10
2018-03-07T04:17:48.679Z,5.00
2018-03-07T04:18:48.633Z,4.97
2018-03-07T04:19:48.587Z,5.00
2018-03-07T04:20:48.545Z,5.00
2018-03-07T04:21:48.489Z,5.00
2018-03-07T04:22:48.444Z,4.94
2018-03-07T04:23:48.396Z,4.92
2018-03-07T04:24:48.359Z,4.90
2018-03-07T04:25:48.304Z,4.89
2018-03-07T04:26:48.255Z,4.87
2018-03-07T04:27:48.208Z,4.86
2018-03-07T04:28:48.166Z,4.83
2018-03-07T04:29:48.115Z,4.78
2018-03-07T04:30:48.064Z,4.87
2018-03-07T04:31:48.018Z,4.94
2018-03-07T04:32:47.976Z,4.87
2018-03-07T04:33:47.925Z,4.79
2018-03-07T04:34:47.878Z,4.87
2018-03-07T04:35:47.829Z,4.82
2018-03-07T04:36:47.786Z,4.82
2018-03-07T04:37:47.736Z,4.82
2018-03-07T04:38:47.691Z,4.84
2018-03-07T04:39:47.645Z,4.78
2018-03-07T04:40:47.596Z,4.83
2018-03-07T04:41:47.550Z,4.79
2018-03-07T04:42:47.498Z,4.82
2018-03-07T04:43:47.452Z,4.78
2018-03-07T04:44:47.410Z,4.76
2018-03-07T04:45:47.358Z,4.70
2018-03-07T04:46:47.311Z,4.74
2018-03-07T04:47:47.266Z,4.83
2018-03-07T04:48:47.219Z,4.63
2018-03-07T04:49:47.170Z,4.66
2018-03-07T04:50:47.122Z,4.67
2018-03-07T04:51:47.078Z,4.78
2018-03-07T04:52:47.027Z,4.66
2018-03-07T04:53:46.978Z,4.63
2018-03-07T04:54:46.933Z,4.67
2018-03-07T04:55:46.884Z,4.67
2018-03-07T04:56:46.840Z,4.64
2018-03-07T04:57:46.788Z,4.67
2018-03-07T04:58:46.742Z,4.68
2018-03-07T04:59:46.697Z,4.63
2018-03-07T05:00:46.650Z,4.63
2018-03-07T05:01:46.598Z,4.67
2018-03-07T05:02:46.663Z,4.66
2018-03-07T05:03:46.506Z,4.71
2018-03-07T05:04:46.458Z,4.66
2018-03-07T05:05:46.410Z,4.66
2018-03-07T05:06:46.365Z,4.56
2018-03-07T05:07:46.317Z,4.52
2018-03-07T05:08:46.270Z,4.50
2018-03-07T05:09:46.222Z,4.53
2018-03-07T05:10:46.184Z,4.56
2018-03-07T05:11:46.133Z,4.58
2018-03-07T05:12:46.084Z,4.56
2018-03-07T05:13:46.030Z,4.60
2018-03-07T05:14:45.987Z,4.49
2018-03-07T05:15:45.937Z,4.48
2018-03-07T05:16:45.888Z,4.38
2018-03-07T05:17:45.842Z,4.39
2018-03-07T05:18:45.806Z,4.42
2018-03-07T05:19:45.746Z,4.39
2018-03-07T05:20:45.699Z,4.36
2018-03-07T05:21:45.653Z,4.32
2018-03-07T05:22:45.606Z,4.31
2018-03-07T05:23:45.560Z,4.31
2018-03-07T05:24:45.510Z,4.28
2018-03-07T05:25:45.463Z,4.30
2018-03-07T05:26:45.414Z,4.18
2018-03-07T05:27:45.366Z,4.25
2018-03-07T05:28:45.321Z,4.25
2018-03-07T05:29:45.284Z,4.25
2018-03-07T05:30:45.243Z,4.16
2018-03-07T05:31:45.183Z,4.16
2018-03-07T05:32:45.139Z,4.16
2018-03-07T05:33:45.081Z,4.10
2018-03-07T05:34:45.034Z,4.09
2018-03-07T05:35:44.989Z,3.91
2018-03-07T05:36:44.943Z,4.04
2018-03-07T05:37:44.893Z,4.03
2018-03-07T05:38:44.848Z,3.96
2018-03-07T05:39:44.796Z,3.94
2018-03-07T05:40:44.748Z,3.91
2018-03-07T05:41:44.698Z,3.91
2018-03-07T05:42:44.652Z,3.94
2018-03-07T05:43:44.605Z,3.91
2018-03-07T05:44:44.556Z,3.86
2018-03-07T05:45:44.507Z,3.82
2018-03-07T05:46:44.467Z,3.77
2018-03-07T05:47:44.414Z,3.77
2018-03-07T05:48:44.371Z,3.76
2018-03-07T05:49:44.320Z,3.73
2018-03-07T05:50:44.271Z,3.71
2018-03-07T05:51:44.222Z,3.73
2018-03-07T05:52:44.176Z,3.82
2018-03-07T05:53:44.127Z,3.76
2018-03-07T05:54:44.079Z,3.74
2018-03-07T05:55:44.041Z,3.58
2018-03-07T05:56:43.984Z,3.68
2018-03-07T05:57:43.939Z,3.67
2018-03-07T05:58:43.894Z,3.68
2018-03-07T05:59:43.838Z,3.59
2018-03-07T06:00:43.794Z,3.73
2018-03-07T06:01:43.749Z,3.64
2018-03-07T06:02:43.699Z,3.82
2018-03-07T06:03:43.651Z,3.68
2018-03-07T06:04:43.600Z,3.74
2018-03-07T06:05:43.551Z,3.70
2018-03-07T06:06:43.505Z,3.76
2018-03-07T06:07:43.456Z,3.76
2018-03-07T06:08:43.410Z,3.73
2018-03-07T06:09:43.360Z,3.67
2018-03-07T06:10:43.321Z,3.76
2018-03-07T06:11:43.267Z,3.76
2018-03-07T06:12:43.218Z,3.76
2018-03-07T06:13:43.172Z,3.77
2018-03-07T06:14:43.120Z,3.78
2018-03-07T06:15:43.073Z,3.84
2018-03-07T06:16:43.024Z,3.78
2018-03-07T06:17:42.976Z,3.88
2018-03-07T06:18:42.927Z,3.84
2018-03-07T06:19:42.881Z,3.81
2018-03-07T06:20:42.833Z,3.86
2018-03-07T06:21:42.782Z,3.84
2018-03-07T06:22:42.741Z,3.89
2018-03-07T06:23:42.691Z,3.92
2018-03-07T06:24:42.642Z,3.85
2018-03-07T06:25:42.594Z,4.02
2018-03-07T06:26:42.545Z,4.04
2018-03-07T06:27:42.496Z,3.89
2018-03-07T06:28:42.450Z,4.03
2018-03-07T06:29:42.404Z,4.02
2018-03-07T06:30:42.353Z,4.10
2018-03-07T06:31:42.310Z,4.14
2018-03-07T06:32:42.261Z,4.14
2018-03-07T06:33:42.210Z,4.14
2018-03-07T06:34:42.161Z,4.16
2018-03-07T06:35:42.115Z,4.13
2018-03-07T06:36:42.068Z,4.25
2018-03-07T06:37:42.021Z,4.18
2018-03-07T06:38:41.972Z,4.28
2018-03-07T06:39:41.924Z,4.30
2018-03-07T06:40:41.878Z,4.28
2018-03-07T06:41:41.828Z,4.27
2018-03-07T06:42:41.788Z,4.30
2018-03-07T06:43:41.735Z,4.28
2018-03-07T06:44:41.689Z,4.27
2018-03-07T06:45:41.641Z,4.32
2018-03-07T06:46:41.588Z,4.28
2018-03-07T06:47:41.547Z,4.38
2018-03-07T06:48:41.498Z,4.34
2018-03-07T06:49:41.447Z,4.45
2018-03-07T06:50:41.399Z,4.42
2018-03-07T06:51:41.360Z,4.34
2018-03-07T06:52:41.307Z,4.40
2018-03-07T06:53:41.256Z,4.45
2018-03-07T06:54:41.213Z,4.43
2018-03-07T06:55:41.161Z,4.46
2018-03-07T06:56:41.114Z,4.39
2018-03-07T06:57:41.073Z,4.45
2018-03-07T06:58:41.027Z,4.52
2018-03-07T06:59:40.978Z,4.58
2018-03-07T07:00:40.930Z,4.58
2018-03-07T07:01:40.880Z,4.56
2018-03-07T07:02:40.831Z,4.57
2018-03-07T07:03:40.786Z,4.60
2018-03-07T07:04:40.736Z,4.56
2018-03-07T07:05:40.686Z,4.67
2018-03-07T07:06:40.638Z,4.64
2018-03-07T07:07:40.591Z,4.63
2018-03-07T07:08:40.546Z,4.70
2018-03-07T07:09:40.497Z,4.74
2018-03-07T07:10:40.449Z,4.76
2018-03-07T07:11:40.405Z,4.87
2018-03-07T07:12:40.356Z,4.83
2018-03-07T07:13:40.307Z,4.84
2018-03-07T07:14:40.265Z,4.95
2018-03-07T07:15:40.211Z,5.04
2018-03-07T07:16:40.165Z,5.19
2018-03-07T07:17:40.116Z,5.16
2018-03-07T07:18:40.070Z,5.20
2018-03-07T07:19:40.025Z,5.36
2018-03-07T07:20:39.975Z,5.40
2018-03-07T07:21:39.928Z,5.55
2018-03-07T07:22:39.881Z,5.58
2018-03-07T07:23:39.836Z,5.67
2018-03-07T07:24:39.788Z,5.72
2018-03-07T07:25:39.740Z,5.83
2018-03-07T07:26:39.694Z,5.87
2018-03-07T07:27:39.656Z,6.01
2018-03-07T07:28:39.600Z,6.19
2018-03-07T07:29:39.556Z,6.22
2018-03-07T07:30:39.508Z,6.39
2018-03-07T07:31:39.461Z,6.52
2018-03-07T07:32:39.413Z,6.77
2018-03-07T07:33:39.370Z,6.78
2018-03-07T07:34:39.321Z,6.77
2018-03-07T07:35:39.275Z,6.86
2018-03-07T07:36:39.228Z,6.95
2018-03-07T07:37:39.181Z,6.93
2018-03-07T07:38:39.142Z,7.04
2018-03-07T07:39:39.089Z,7.18
2018-03-07T07:40:39.050Z,7.26
2018-03-07T07:41:39.004Z,7.31
2018-03-07T07:42:38.950Z,7.31
2018-03-07T07:43:38.907Z,7.37
2018-03-07T07:44:38.857Z,7.32
2018-03-07T07:45:38.817Z,7.28
2018-03-07T07:46:38.767Z,7.37
2018-03-07T07:47:38.721Z,7.32
2018-03-07T07:48:38.674Z,7.44
2018-03-07T07:49:38.634Z,7.43
2018-03-07T07:50:38.582Z,7.46
2018-03-07T07:51:38.538Z,7.53
2018-03-07T07:52:38.490Z,7.47
2018-03-07T07:53:38.446Z,7.46
2018-03-07T07:54:38.399Z,7.56
2018-03-07T07:55:38.353Z,7.58
2018-03-07T07:56:38.314Z,7.62
2018-03-07T07:57:38.307Z,7.75
2018-03-07T07:58:38.216Z,7.77
2018-03-07T07:59:38.174Z,7.77
2018-03-07T08:00:38.127Z,7.74
2018-03-07T08:01:38.084Z,7.83
2018-03-07T08:02:38.035Z,7.91
2018-03-07T08:03:37.991Z,7.96
2018-03-07T08:04:37.946Z,7.99
2018-03-07T08:05:37.901Z,7.98
2018-03-07T08:06:37.854Z,8.03
2018-03-07T08:07:37.808Z,8.11
2018-03-07T08:08:37.763Z,8.23
2018-03-07T08:09:37.719Z,8.72
2018-03-07T08:10:37.681Z,9.74
2018-03-07T08:11:37.633Z,10.51
2018-03-07T08:12:37.582Z,11.07
2018-03-07T08:13:37.536Z,11.37
2018-03-07T08:14:37.493Z,11.74
2018-03-07T08:15:37.452Z,12.08
2018-03-07T08:16:37.408Z,12.25
2018-03-07T08:17:37.360Z,12.62
2018-03-07T08:18:37.316Z,12.84
2018-03-07T08:19:37.276Z,12.99
2018-03-07T08:20:37.233Z,13.30
2018-03-07T08:21:37.191Z,13.45
2018-03-07T08:22:37.143Z,13.71
2018-03-07T08:23:37.105Z,13.83
2018-03-07T08:24:37.062Z,13.87
2018-03-07T08:25:37.020Z,14.04
2018-03-07T08:26:36.976Z,14.08
2018-03-07T08:27:36.988Z,14.19
2018-03-07T08:28:36.894Z,13.86
2018-03-07T08:29:36.856Z,13.28
2018-03-07T08:30:36.814Z,12.88
2018-03-07T08:31:36.772Z,12.61
2018-03-07T08:32:36.729Z,12.87
2018-03-07T08:33:36.688Z,13.31
2018-03-07T08:34:36.646Z,13.64
2018-03-07T08:35:36.604Z,13.75
2018-03-07T08:36:36.563Z,13.52
2018-03-07T08:37:36.520Z,13.80
2018-03-07T08:38:36.481Z,14.08
2018-03-07T08:39:36.442Z,14.38
2018-03-07T08:40:36.397Z,14.51
2018-03-07T08:41:36.357Z,14.53
2018-03-07T08:42:36.314Z,14.77
2018-03-07T08:43:36.274Z,14.74
2018-03-07T08:44:36.232Z,14.73
2018-03-07T08:45:36.191Z,14.78
2018-03-07T08:46:36.151Z,14.82
2018-03-07T08:47:36.110Z,14.82
2018-03-07T08:48:36.070Z,14.99
2018-03-07T08:49:36.028Z,15.14
2018-03-07T08:50:35.989Z,15.12
2018-03-07T08:51:35.949Z,15.23
2018-03-07T08:52:35.910Z,15.32
2018-03-07T08:53:35.864Z,15.27
2018-03-07T08:54:35.824Z,15.29
2018-03-07T08:55:35.786Z,15.27
2018-03-07T08:56:35.745Z,15.32
2018-03-07T08:57:35.708Z,15.39
2018-03-07T08:58:35.663Z,15.35
2018-03-07T08:59:35.631Z,15.45
2018-03-07T09:00:35.624Z,15.45
2018-03-07T09:01:35.546Z,15.52
2018-03-07T09:02:35.515Z,15.43
2018-03-07T09:03:35.463Z,15.44
2018-03-07T09:04:35.426Z,15.45
2018-03-07T09:05:35.384Z,15.36
2018-03-07T09:06:35.345Z,15.39
2018-03-07T09:07:35.305Z,15.52
2018-03-07T09:08:35.265Z,15.54
2018-03-07T09:09:35.223Z,15.54
2018-03-07T09:10:35.188Z,15.59
2018-03-07T09:11:35.147Z,15.54
2018-03-07T09:12:35.106Z,15.48
2018-03-07T09:13:35.068Z,15.51
2018-03-07T09:14:35.025Z,15.52
2018-03-07T09:15:34.986Z,15.41
2018-03-07T09:16:34.946Z,15.45
2018-03-07T09:17:34.908Z,15.41
2018-03-07T09:18:34.871Z,15.37
2018-03-07T09:19:34.833Z,15.41
2018-03-07T09:20:34.787Z,15.39
2018-03-07T09:21:34.748Z,15.32
2018-03-07T09:22:34.720Z,15.30
2018-03-07T09:23:34.668Z,15.29
2018-03-07T09:24:34.663Z,15.26
2018-03-07T09:25:34.590Z,15.27
2018-03-07T09:26:34.552Z,15.30
2018-03-07T09:27:34.510Z,15.27
2018-03-07T09:28:34.475Z,15.33
2018-03-07T09:29:34.431Z,15.22
2018-03-07T09:30:34.397Z,15.30
2018-03-07T09:31:34.356Z,15.30
2018-03-07T09:32:34.318Z,15.30
2018-03-07T09:33:34.274Z,15.36
2018-03-07T09:34:34.280Z,15.35
2018-03-07T09:35:34.196Z,15.30
2018-03-07T09:36:34.157Z,15.33
2018-03-07T09:37:34.119Z,15.37
2018-03-07T09:38:34.081Z,15.35
2018-03-07T09:39:34.040Z,15.29
2018-03-07T09:40:34.008Z,15.25
2018-03-07T09:41:33.964Z,15.19
2018-03-07T09:42:33.923Z,15.29
2018-03-07T09:43:33.883Z,15.19
2018-03-07T09:44:33.848Z,15.26
2018-03-07T09:45:33.807Z,15.37
2018-03-07T09:46:33.773Z,15.33
2018-03-07T09:47:33.727Z,15.33
2018-03-07T09:48:33.689Z,15.37
2018-03-07T09:49:33.650Z,15.43
2018-03-07T09:50:33.617Z,15.48
2018-03-07T09:51:33.571Z,15.54
2018-03-07T09:52:33.532Z,15.48
2018-03-07T09:53:33.493Z,15.48
2018-03-07T09:54:33.455Z,15.51
2018-03-07T09:55:33.414Z,15.62
2018-03-07T09:56:33.515Z,15.54
2018-03-07T09:57:33.336Z,15.47
2018-03-07T09:58:33.302Z,15.50
2018-03-07T09:59:33.256Z,15.32
2018-03-07T10:00:33.219Z,15.29
2018-03-07T10:01:33.177Z,15.27
2018-03-07T10:02:33.138Z,15.23
2018-03-07T10:03:33.099Z,15.23
2018-03-07T10:04:33.058Z,15.26
2018-03-07T10:05:33.019Z,15.26
2018-03-07T10:06:32.979Z,15.17
2018-03-07T10:07:32.939Z,15.05
2018-03-07T10:08:32.901Z,15.04
2018-03-07T10:09:32.860Z,15.00
2018-03-07T10:10:32.820Z,14.87
2018-03-07T10:11:32.782Z,14.82
2018-03-07T10:12:32.738Z,14.85
2018-03-07T10:13:32.714Z,14.96
2018-03-07T10:14:32.690Z,14.82
2018-03-07T10:15:32.618Z,14.87
2018-03-07T10:16:32.609Z,14.90
2018-03-07T10:17:32.536Z,14.90
2018-03-07T10:18:32.495Z,14.89
2018-03-07T10:19:32.459Z,14.92
2018-03-07T10:20:32.414Z,14.97
2018-03-07T10:21:32.376Z,14.92
2018-03-07T10:22:32.334Z,14.87
2018-03-07T10:23:32.293Z,14.78
2018-03-07T10:24:32.260Z,14.71
2018-03-07T10:25:32.209Z,14.77
2018-03-07T10:26:32.171Z,14.78
2018-03-07T10:27:32.130Z,14.67
2018-03-07T10:28:32.088Z,14.78
2018-03-07T10:29:32.063Z,14.77
2018-03-07T10:30:32.009Z,14.82
2018-03-07T10:31:31.967Z,14.86
2018-03-07T10:32:31.923Z,14.85
2018-03-07T10:33:31.882Z,15.04
2018-03-07T10:34:31.841Z,14.96
2018-03-07T10:35:31.800Z,15.07
2018-03-07T10:36:31.757Z,15.02
2018-03-07T10:37:31.718Z,15.04
2018-03-07T10:38:31.676Z,15.10
2018-03-07T10:39:31.635Z,15.18
2018-03-07T10:40:31.595Z,15.19
2018-03-07T10:41:31.559Z,15.25
2018-03-07T10:42:31.510Z,15.36
2018-03-07T10:43:31.475Z,15.27
2018-03-07T10:44:31.430Z,15.29
2018-03-07T10:45:31.391Z,15.37
2018-03-07T10:46:31.350Z,15.36
2018-03-07T10:47:31.307Z,15.52
2018-03-07T10:48:31.267Z,15.50
2018-03-07T10:49:31.229Z,15.60
2018-03-07T10:50:31.187Z,15.63
2018-03-07T10:51:31.141Z,15.67
2018-03-07T10:52:31.109Z,15.69
2018-03-07T10:53:31.059Z,15.83
2018-03-07T10:54:31.019Z,15.94
2018-03-07T10:55:30.981Z,16.12
2018-03-07T10:56:30.936Z,16.28
2018-03-07T10:57:30.897Z,16.34
2018-03-07T10:58:30.860Z,16.26
2018-03-07T10:59:30.815Z,16.12
2018-03-07T11:00:30.775Z,16.08
2018-03-07T11:01:30.741Z,15.94
2018-03-07T11:02:30.698Z,15.91
2018-03-07T11:03:30.653Z,15.91
2018-03-07T11:04:30.612Z,15.80
2018-03-07T11:05:30.572Z,15.69
2018-03-07T11:06:30.531Z,15.69
2018-03-07T11:07:30.491Z,15.70
2018-03-07T11:08:30.449Z,15.63
2018-03-07T11:09:30.408Z,15.59
2018-03-07T11:10:30.372Z,15.37
2018-03-07T11:11:30.328Z,15.22
2018-03-07T11:12:30.290Z,15.12
2018-03-07T11:13:30.249Z,15.05
2018-03-07T11:14:30.204Z,15.00
2018-03-07T11:15:30.165Z,15.07
2018-03-07T11:16:30.125Z,15.04
2018-03-07T11:17:30.083Z,14.90
2018-03-07T11:18:30.042Z,14.70
2018-03-07T11:19:30.000Z,14.70
2018-03-07T11:20:29.957Z,14.61
2018-03-07T11:21:29.918Z,14.44
2018-03-07T11:22:29.890Z,14.53
2018-03-07T11:23:29.834Z,14.44
2018-03-07T11:24:29.793Z,14.56
2018-03-07T11:25:29.754Z,14.56
2018-03-07T11:26:29.713Z,14.62
2018-03-07T11:27:29.670Z,14.79
2018-03-07T11:28:29.630Z,14.86
2018-03-07T11:29:29.585Z,15.00
2018-03-07T11:30:29.548Z,15.12
2018-03-07T11:31:29.501Z,15.18
2018-03-07T11:32:29.463Z,15.39
2018-03-07T11:33:29.421Z,15.43
2018-03-07T11:34:29.385Z,15.45
2018-03-07T11:35:29.337Z,15.48
2018-03-07T11:36:29.296Z,15.51
2018-03-07T11:37:29.254Z,15.50
2018-03-07T11:38:29.218Z,15.57
2018-03-07T11:39:29.173Z,15.55
2018-03-07T11:40:29.133Z,15.48
2018-03-07T11:41:29.095Z,15.51
2018-03-07T11:42:29.049Z,15.41
2018-03-07T11:43:29.010Z,15.41
2018-03-07T11:44:28.968Z,15.45
2018-03-07T11:45:28.930Z,15.50
2018-03-07T11:46:28.885Z,15.55
2018-03-07T11:47:28.844Z,15.65
2018-03-07T11:48:28.801Z,15.63
2018-03-07T11:49:28.760Z,15.48
2018-03-07T11:50:28.722Z,15.47
2018-03-07T11:51:28.677Z,15.54
2018-03-07T11:52:28.636Z,15.51
2018-03-07T11:53:28.593Z,15.41
2018-03-07T11:54:28.554Z,15.44
2018-03-07T11:55:28.514Z,15.41
2018-03-07T11:56:28.476Z,15.33
2018-03-07T11:57:28.432Z,15.25
2018-03-07T11:58:28.394Z,15.17
2018-03-07T11:59:28.353Z,15.02
2018-03-07T12:00:28.312Z,15.00
2018-03-07T12:01:28.267Z,14.96
2018-03-07T12:02:28.225Z,14.96
2018-03-07T12:03:28.188Z,14.97
2018-03-07T12:04:28.144Z,14.99
2018-03-07T12:05:28.104Z,15.05
2018-03-07T12:06:28.060Z,15.04
2018-03-07T12:07:28.019Z,15.04
2018-03-07T12:08:27.983Z,15.04
2018-03-07T12:09:27.937Z,14.94
2018-03-07T12:10:27.899Z,14.89
2018-03-07T12:11:27.857Z,14.78
2018-03-07T12:12:27.814Z,14.79
2018-03-07T12:13:27.771Z,14.82
2018-03-07T12:14:27.730Z,14.62
2018-03-07T12:15:27.691Z,14.63
2018-03-07T12:16:27.649Z,14.58
2018-03-07T12:17:27.605Z,14.52
2018-03-07T12:18:27.567Z,14.51
2018-03-07T12:19:27.526Z,14.40
2018-03-07T12:20:27.486Z,14.36
2018-03-07T12:21:27.440Z,14.30
2018-03-07T12:22:27.397Z,14.23
2018-03-07T12:23:27.358Z,14.04
2018-03-07T12:24:27.320Z,13.93
2018-03-07T12:25:27.277Z,13.82
2018-03-07T12:26:27.233Z,13.57
2018-03-07T12:27:27.191Z,13.49
2018-03-07T12:28:27.152Z,13.36
2018-03-07T12:29:27.113Z,13.39
2018-03-07T12:30:27.073Z,13.20
2018-03-07T12:31:27.025Z,13.06
2018-03-07T12:32:26.979Z,13.09
2018-03-07T12:33:26.943Z,12.95
2018-03-07T12:34:26.896Z,13.02
2018-03-07T12:35:26.860Z,12.94
2018-03-07T12:36:26.816Z,12.90
2018-03-07T12:37:26.771Z,12.68
2018-03-07T12:38:26.726Z,12.61
2018-03-07T12:39:26.686Z,12.65
2018-03-07T12:40:26.641Z,12.57
2018-03-07T12:41:26.604Z,12.45
2018-03-07T12:42:26.562Z,12.39
2018-03-07T12:43:26.513Z,12.29
2018-03-07T12:44:26.471Z,12.15
2018-03-07T12:45:26.433Z,12.15
2018-03-07T12:46:26.387Z,12.14
2018-03-07T12:47:26.342Z,12.07
2018-03-07T12:48:26.299Z,12.08
2018-03-07T12:49:26.256Z,11.95
2018-03-07T12:50:26.218Z,11.91
2018-03-07T12:51:26.169Z,11.80
2018-03-07T12:52:26.138Z,11.73
2018-03-07T12:53:26.083Z,11.80
2018-03-07T12:54:26.043Z,11.65
2018-03-07T12:55:26.001Z,11.63
2018-03-07T12:56:25.956Z,11.74
2018-03-07T12:57:25.910Z,11.78
2018-03-07T12:58:25.870Z,11.76
2018-03-07T12:59:25.838Z,11.70
2018-03-07T13:00:25.784Z,11.71
2018-03-07T13:01:25.743Z,11.74
2018-03-07T13:02:25.694Z,11.78
2018-03-07T13:03:25.657Z,11.81
2018-03-07T13:04:25.609Z,11.81
2018-03-07T13:05:25.571Z,11.86
2018-03-07T13:06:25.528Z,11.86
2018-03-07T13:07:25.477Z,11.83
2018-03-07T13:08:25.433Z,11.86
2018-03-07T13:09:25.394Z,11.91
2018-03-07T13:10:25.351Z,11.89
2018-03-07T13:11:25.306Z,11.91
2018-03-07T13:12:25.264Z,11.65
2018-03-07T13:13:25.252Z,11.73
2018-03-07T13:14:25.177Z,11.68
2018-03-07T13:15:25.134Z,11.63
2018-03-07T13:16:25.101Z,11.56
2018-03-07T13:17:25.042Z,11.44
2018-03-07T13:18:25.000Z,11.44
2018-03-07T13:19:24.962Z,11.38
2018-03-07T13:20:24.915Z,11.33
2018-03-07T13:21:24.868Z,11.23
2018-03-07T13:22:24.829Z,11.22
2018-03-07T13:23:24.784Z,11.25
2018-03-07T13:24:24.738Z,11.18
2018-03-07T13:25:24.695Z,11.22
2018-03-07T13:26:24.650Z,11.25
2018-03-07T13:27:24.609Z,11.31
2018-03-07T13:28:24.566Z,11.27
2018-03-07T13:29:24.520Z,11.40
2018-03-07T13:30:24.481Z,11.49
2018-03-07T13:31:24.435Z,11.51
2018-03-07T13:32:24.395Z,11.48
2018-03-07T13:33:24.349Z,11.43
2018-03-07T13:34:24.306Z,11.43
2018-03-07T13:35:24.260Z,11.45
2018-03-07T13:36:24.217Z,11.45
2018-03-07T13:37:24.172Z,11.60
2018-03-07T13:38:24.128Z,11.51
2018-03-07T13:39:24.089Z,11.38
2018-03-07T13:40:24.042Z,11.40
2018-03-07T13:41:24.006Z,11.45
2018-03-07T13:42:23.956Z,11.43
2018-03-07T13:43:23.915Z,11.37
2018-03-07T13:44:23.913Z,11.27
2018-03-07T13:45:23.826Z,11.22
2018-03-07T13:46:23.778Z,11.20
2018-03-07T13:47:23.736Z,11.15
2018-03-07T13:48:23.695Z,11.15
2018-03-07T13:49:23.648Z,11.05
2018-03-07T13:50:23.605Z,11.04
2018-03-07T13:51:23.562Z,10.90
2018-03-07T13:52:23.518Z,10.95
2018-03-07T13:53:23.475Z,10.94
2018-03-07T13:54:23.432Z,10.94
2018-03-07T13:55:23.386Z,10.92
2018-03-07T13:56:23.349Z,10.94
2018-03-07T13:57:23.297Z,10.90
2018-03-07T13:58:23.256Z,10.97
2018-03-07T13:59:23.216Z,10.94
2018-03-07T14:00:23.168Z,11.07